sensor_id;sensor_type;location;lat;lon;timestamp;pressure;altitude;pressure_sealevel;temperature;humidity
13553;BME280;6847;48.830;9.116;2023-05-19T00:01:26;98399.53;;;15.84;38.32
13553;BME280;6847;48.830;9.116;2023-05-19T00:03:55;98374.88;;;15.57;38.60
13553;BME280;6847;48.830;9.116;2023-05-19T00:06:26;98399.41;;;15.76;38.53
13553;BME280;6847;48.830;9.116;2023-05-19T00:08:56;98363.56;;;15.45;38.23
13553;BME280;6847;48.830;9.116;2023-05-19T00:11:24;98403.00;;;15.71;38.67
13553;BME280;6847;48.830;9.116;2023-05-19T00:13:52;98403.28;;;15.70;38.52
13553;BME280;6847;48.830;9.116;2023-05-19T00:16:19;98397.03;;;15.69;38.69
13553;BME280;6847;48.830;9.116;2023-05-19T00:18:48;98384.66;;;15.58;38.60
13553;BME280;6847;48.830;9.116;2023-05-19T00:21:17;98384.66;;;15.58;38.68
13553;BME280;6847;48.830;9.116;2023-05-19T00:23:45;98403.91;;;15.67;38.90
13553;BME280;6847;48.830;9.116;2023-05-19T00:26:12;98399.03;;;15.64;38.77
13553;BME280;6847;48.830;9.116;2023-05-19T00:28:40;98406.41;;;15.63;38.72
13553;BME280;6847;48.830;9.116;2023-05-19T00:31:07;98399.03;;;15.64;38.72
13553;BME280;6847;48.830;9.116;2023-05-19T00:33:34;98398.22;;;15.63;38.75
13553;BME280;6847;48.830;9.116;2023-05-19T00:36:01;98368.41;;;15.48;38.75
13553;BME280;6847;48.830;9.116;2023-05-19T00:38:29;98390.34;;;15.62;39.06
13553;BME280;6847;48.830;9.116;2023-05-19T00:40:57;98396.59;;;15.62;38.87
13553;BME280;6847;48.830;9.116;2023-05-19T00:43:25;98393.88;;;15.62;39.08
13553;BME280;6847;48.830;9.116;2023-05-19T00:45:54;98388.94;;;15.64;38.89
13553;BME280;6847;48.830;9.116;2023-05-19T00:48:21;98389.75;;;15.65;39.08
13553;BME280;6847;48.830;9.116;2023-05-19T00:50:49;98390.56;;;15.65;39.00
13553;BME280;6847;48.830;9.116;2023-05-19T00:53:17;98389.53;;;15.61;39.19
13553;BME280;6847;48.830;9.116;2023-05-19T00:55:45;98390.09;;;15.58;39.25
13553;BME280;6847;48.830;9.116;2023-05-19T00:58:15;98381.44;;;15.56;39.43
13553;BME280;6847;48.830;9.116;2023-05-19T01:00:42;98382.56;;;15.50;39.23
13553;BME280;6847;48.830;9.116;2023-05-19T01:03:10;98385.38;;;15.45;39.42
13553;BME280;6847;48.830;9.116;2023-05-19T01:05:37;98367.56;;;15.34;39.39
13553;BME280;6847;48.830;9.116;2023-05-19T01:08:06;98380.09;;;15.35;39.86
13553;BME280;6847;48.830;9.116;2023-05-19T01:10:33;98379.56;;;15.33;39.51
13553;BME280;6847;48.830;9.116;2023-05-19T01:13:00;98283.69;;;14.69;39.68
13553;BME280;6847;48.830;9.116;2023-05-19T01:15:29;98343.97;;;15.05;39.80
13553;BME280;6847;48.830;9.116;2023-05-19T01:18:00;98373.69;;;15.26;39.77
13553;BME280;6847;48.830;9.116;2023-05-19T01:20:35;98381.34;;;15.24;39.94
13553;BME280;6847;48.830;9.116;2023-05-19T01:23:27;98343.84;;;14.97;39.82
13553;BME280;6847;48.830;9.116;2023-05-19T01:26:10;98386.84;;;15.18;39.82
13553;BME280;6847;48.830;9.116;2023-05-19T01:28:55;98360.41;;;15.00;40.19
13553;BME280;6847;48.830;9.116;2023-05-19T01:31:29;98389.09;;;15.16;39.79
13553;BME280;6847;48.830;9.116;2023-05-19T01:33:57;98387.47;;;15.15;39.94
13553;BME280;6847;48.830;9.116;2023-05-19T01:36:26;98388.03;;;15.12;40.29
13553;BME280;6847;48.830;9.116;2023-05-19T01:38:55;98391.88;;;15.11;40.15
13553;BME280;6847;48.830;9.116;2023-05-19T01:41:23;98390.53;;;15.09;40.38
13553;BME280;6847;48.830;9.116;2023-05-19T01:43:50;98395.50;;;15.07;40.40
13553;BME280;6847;48.830;9.116;2023-05-19T01:46:18;98393.63;;;15.02;40.37
13553;BME280;6847;48.830;9.116;2023-05-19T01:48:47;98389.09;;;14.98;40.86
13553;BME280;6847;48.830;9.116;2023-05-19T01:51:14;98386.66;;;14.96;40.87
13553;BME280;6847;48.830;9.116;2023-05-19T01:53:41;98386.94;;;14.95;40.93
13553;BME280;6847;48.830;9.116;2023-05-19T01:56:08;98386.69;;;14.91;40.82
13553;BME280;6847;48.830;9.116;2023-05-19T01:58:39;98391.94;;;14.88;40.66
13553;BME280;6847;48.830;9.116;2023-05-19T02:01:10;98387.31;;;14.88;41.05
13553;BME280;6847;48.830;9.116;2023-05-19T02:03:53;98383.53;;;14.84;40.68
13553;BME280;6847;48.830;9.116;2023-05-19T02:06:33;98383.59;;;14.79;40.96
13553;BME280;6847;48.830;9.116;2023-05-19T02:09:02;98380.38;;;14.77;41.52
13553;BME280;6847;48.830;9.116;2023-05-19T02:11:35;98385.81;;;14.77;41.10
13553;BME280;6847;48.830;9.116;2023-05-19T02:14:07;98374.50;;;14.65;41.07
13553;BME280;6847;48.830;9.116;2023-05-19T02:16:35;98383.75;;;14.69;41.65
13553;BME280;6847;48.830;9.116;2023-05-19T02:19:05;98387.25;;;14.69;40.97
13553;BME280;6847;48.830;9.116;2023-05-19T02:21:32;98385.34;;;14.70;41.66
13553;BME280;6847;48.830;9.116;2023-05-19T02:23:59;98386.16;;;14.70;41.38
13553;BME280;6847;48.830;9.116;2023-05-19T02:26:27;98386.97;;;14.71;41.60
13553;BME280;6847;48.830;9.116;2023-05-19T02:28:53;98387.56;;;14.68;41.84
13553;BME280;6847;48.830;9.116;2023-05-19T02:31:20;98390.88;;;14.65;41.31
13553;BME280;6847;48.830;9.116;2023-05-19T02:33:47;98340.53;;;14.33;41.90
13553;BME280;6847;48.830;9.116;2023-05-19T02:36:16;98393.06;;;14.63;41.98
13553;BME280;6847;48.830;9.116;2023-05-19T02:38:43;98392.53;;;14.61;41.73
13553;BME280;6847;48.830;9.116;2023-05-19T02:41:10;98394.16;;;14.62;42.09
13553;BME280;6847;48.830;9.116;2023-05-19T02:43:36;98384.44;;;14.56;41.87
13553;BME280;6847;48.830;9.116;2023-05-19T02:46:03;98380.09;;;14.55;41.93
13553;BME280;6847;48.830;9.116;2023-05-19T02:48:30;98381.75;;;14.51;42.17
13553;BME280;6847;48.830;9.116;2023-05-19T02:50:57;98380.19;;;14.44;42.57
13553;BME280;6847;48.830;9.116;2023-05-19T02:53:27;98365.63;;;14.30;42.58
13553;BME280;6847;48.830;9.116;2023-05-19T02:55:54;98374.31;;;14.32;42.18
13553;BME280;6847;48.830;9.116;2023-05-19T02:58:21;98367.84;;;14.28;42.04
13553;BME280;6847;48.830;9.116;2023-05-19T03:00:47;98368.41;;;14.25;42.43
13553;BME280;6847;48.830;9.116;2023-05-19T03:03:15;98375.25;;;14.23;42.46
13553;BME280;6847;48.830;9.116;2023-05-19T03:05:42;98348.72;;;14.10;42.52
13553;BME280;6847;48.830;9.116;2023-05-19T03:08:08;98361.69;;;14.18;42.64
13553;BME280;6847;48.830;9.116;2023-05-19T03:10:36;98371.16;;;14.20;42.95
13553;BME280;6847;48.830;9.116;2023-05-19T03:13:04;98360.28;;;14.20;42.47
13553;BME280;6847;48.830;9.116;2023-05-19T03:15:31;98368.44;;;14.20;42.69
13553;BME280;6847;48.830;9.116;2023-05-19T03:17:58;98368.44;;;14.20;42.85
13553;BME280;6847;48.830;9.116;2023-05-19T03:20:25;98364.13;;;14.19;42.95
13553;BME280;6847;48.830;9.116;2023-05-19T03:22:56;98363.06;;;14.15;43.33
13553;BME280;6847;48.830;9.116;2023-05-19T03:25:23;98362.00;;;14.11;43.06
13553;BME280;6847;48.830;9.116;2023-05-19T03:27:51;98364.22;;;14.09;43.60
13553;BME280;6847;48.830;9.116;2023-05-19T03:30:18;98368.63;;;14.05;43.22
13553;BME280;6847;48.830;9.116;2023-05-19T03:32:45;98361.84;;;14.02;43.80
13553;BME280;6847;48.830;9.116;2023-05-19T03:35:11;98367.56;;;14.01;43.05
13553;BME280;6847;48.830;9.116;2023-05-19T03:37:39;98362.19;;;13.96;43.29
13553;BME280;6847;48.830;9.116;2023-05-19T03:40:07;98371.97;;;13.97;43.30
13553;BME280;6847;48.830;9.116;2023-05-19T03:42:34;98372.53;;;13.94;43.94
13553;BME280;6847;48.830;9.116;2023-05-19T03:45:03;98369.59;;;13.90;43.32
13553;BME280;6847;48.830;9.116;2023-05-19T03:47:32;98354.75;;;13.78;43.31
13553;BME280;6847;48.830;9.116;2023-05-19T03:49:58;98371.81;;;13.83;44.22
13553;BME280;6847;48.830;9.116;2023-05-19T03:52:25;98373.78;;;13.78;44.11
13553;BME280;6847;48.830;9.116;2023-05-19T03:54:52;98372.72;;;13.74;44.44
13553;BME280;6847;48.830;9.116;2023-05-19T03:57:18;98375.50;;;13.68;44.46
13553;BME280;6847;48.830;9.116;2023-05-19T03:59:46;98307.63;;;13.19;44.32
13553;BME280;6847;48.830;9.116;2023-05-19T04:02:16;98381.59;;;13.55;44.50
13553;BME280;6847;48.830;9.116;2023-05-19T04:04:42;98380.56;;;13.51;44.70
13553;BME280;6847;48.830;9.116;2023-05-19T04:07:10;98384.38;;;13.50;44.11
13553;BME280;6847;48.830;9.116;2023-05-19T04:09:37;98389.81;;;13.50;44.78
13553;BME280;6847;48.830;9.116;2023-05-19T04:12:05;98342.72;;;13.21;44.10
13553;BME280;6847;48.830;9.116;2023-05-19T04:14:32;98366.56;;;13.29;44.19
13553;BME280;6847;48.830;9.116;2023-05-19T04:16:59;98386.06;;;13.41;44.30
13553;BME280;6847;48.830;9.116;2023-05-19T04:19:28;98387.09;;;13.45;44.29
13553;BME280;6847;48.830;9.116;2023-05-19T04:21:55;98386.28;;;13.45;44.55
13553;BME280;6847;48.830;9.116;2023-05-19T04:24:22;98383.84;;;13.43;44.17
13553;BME280;6847;48.830;9.116;2023-05-19T04:26:49;98390.38;;;13.42;44.71
13553;BME280;6847;48.830;9.116;2023-05-19T04:29:17;98390.69;;;13.41;44.70
13553;BME280;6847;48.830;9.116;2023-05-19T04:31:44;98392.28;;;13.42;45.10
13553;BME280;6847;48.830;9.116;2023-05-19T04:34:14;98383.34;;;13.41;44.50
13553;BME280;6847;48.830;9.116;2023-05-19T04:36:46;98392.28;;;13.42;45.28
13553;BME280;6847;48.830;9.116;2023-05-19T04:39:13;98397.72;;;13.47;44.95
13553;BME280;6847;48.830;9.116;2023-05-19T04:41:40;98398.00;;;13.45;45.33
13553;BME280;6847;48.830;9.116;2023-05-19T04:44:09;98393.38;;;13.46;45.14
13553;BME280;6847;48.830;9.116;2023-05-19T04:46:38;98392.81;;;13.49;45.34
13553;BME280;6847;48.830;9.116;2023-05-19T04:49:07;98389.28;;;13.48;44.55
13553;BME280;6847;48.830;9.116;2023-05-19T04:51:36;98393.03;;;13.52;45.20
13553;BME280;6847;48.830;9.116;2023-05-19T04:54:07;98388.13;;;13.54;45.03
13553;BME280;6847;48.830;9.116;2023-05-19T04:56:34;98395.16;;;13.60;45.06
13553;BME280;6847;48.830;9.116;2023-05-19T04:59:00;98387.50;;;13.62;45.24
13553;BME280;6847;48.830;9.116;2023-05-19T05:01:27;98387.94;;;13.80;44.55
13553;BME280;6847;48.830;9.116;2023-05-19T05:03:55;98387.25;;;13.93;44.51
13553;BME280;6847;48.830;9.116;2023-05-19T05:06:23;98399.09;;;14.07;44.79
13553;BME280;6847;48.830;9.116;2023-05-19T05:08:50;98400.03;;;14.21;45.14
13553;BME280;6847;48.830;9.116;2023-05-19T05:11:20;98397.19;;;14.31;44.64
13553;BME280;6847;48.830;9.116;2023-05-19T05:13:47;98403.38;;;14.42;44.62
13553;BME280;6847;48.830;9.116;2023-05-19T05:16:14;98371.53;;;14.37;45.02
13553;BME280;6847;48.830;9.116;2023-05-19T05:18:41;98393.00;;;14.68;45.04
13553;BME280;6847;48.830;9.116;2023-05-19T05:21:10;98385.22;;;14.80;44.56
13553;BME280;6847;48.830;9.116;2023-05-19T05:23:37;98392.38;;;14.95;44.78
13553;BME280;6847;48.830;9.116;2023-05-19T05:26:08;98382.16;;;15.05;44.50
13553;BME280;6847;48.830;9.116;2023-05-19T05:28:40;98389.00;;;15.22;44.82
13553;BME280;6847;48.830;9.116;2023-05-19T05:31:06;98396.47;;;15.35;44.48
13553;BME280;6847;48.830;9.116;2023-05-19T05:33:33;98390.56;;;15.46;44.74
13553;BME280;6847;48.830;9.116;2023-05-19T05:36:00;98401.03;;;15.58;44.43
13553;BME280;6847;48.830;9.116;2023-05-19T05:38:27;98389.94;;;15.68;44.64
13553;BME280;6847;48.830;9.116;2023-05-19T05:40:53;98392.81;;;15.77;44.61
13553;BME280;6847;48.830;9.116;2023-05-19T05:43:20;98393.44;;;15.87;44.58
13553;BME280;6847;48.830;9.116;2023-05-19T05:45:48;98398.94;;;16.01;44.45
13553;BME280;6847;48.830;9.116;2023-05-19T05:48:15;98397.97;;;16.11;44.47
13553;BME280;6847;48.830;9.116;2023-05-19T05:50:43;98361.13;;;15.95;44.48
13553;BME280;6847;48.830;9.116;2023-05-19T05:53:15;98400.91;;;16.28;44.42
13553;BME280;6847;48.830;9.116;2023-05-19T05:55:43;98403.66;;;16.28;44.38
13553;BME280;6847;48.830;9.116;2023-05-19T05:58:10;98402.53;;;16.29;44.64
13553;BME280;6847;48.830;9.116;2023-05-19T06:00:39;98405.66;;;16.36;44.46
13553;BME280;6847;48.830;9.116;2023-05-19T06:03:09;98389.72;;;16.43;44.57
13553;BME280;6847;48.830;9.116;2023-05-19T06:05:39;98382.63;;;16.42;44.57
13553;BME280;6847;48.830;9.116;2023-05-19T06:08:06;98392.94;;;16.59;44.47
13553;BME280;6847;48.830;9.116;2023-05-19T06:10:33;98397.13;;;16.70;44.40
13553;BME280;6847;48.830;9.116;2023-05-19T06:13:03;98399.44;;;16.77;44.34
13553;BME280;6847;48.830;9.116;2023-05-19T06:15:30;98383.31;;;16.75;44.32
13553;BME280;6847;48.830;9.116;2023-05-19T06:18:08;98395.66;;;17.00;44.01
13553;BME280;6847;48.830;9.116;2023-05-19T06:20:36;98387.03;;;17.20;43.82
13553;BME280;6847;48.830;9.116;2023-05-19T06:23:04;98398.72;;;17.34;43.69
13553;BME280;6847;48.830;9.116;2023-05-19T06:25:32;98385.13;;;17.43;43.68
13553;BME280;6847;48.830;9.116;2023-05-19T06:27:58;98392.13;;;17.71;43.71
13553;BME280;6847;48.830;9.116;2023-05-19T06:30:25;98379.47;;;17.84;43.59
13553;BME280;6847;48.830;9.116;2023-05-19T06:32:53;98390.81;;;17.91;43.74
13553;BME280;6847;48.830;9.116;2023-05-19T06:35:20;98376.63;;;17.89;43.23
13553;BME280;6847;48.830;9.116;2023-05-19T06:37:50;98353.44;;;17.95;43.74
13553;BME280;6847;48.830;9.116;2023-05-19T06:40:17;98395.38;;;18.27;43.13
13553;BME280;6847;48.830;9.116;2023-05-19T06:42:43;98387.09;;;18.49;43.18
13553;BME280;6847;48.830;9.116;2023-05-19T06:45:10;98392.50;;;18.71;43.11
13553;BME280;6847;48.830;9.116;2023-05-19T06:47:37;98392.56;;;18.89;42.83
13553;BME280;6847;48.830;9.116;2023-05-19T06:50:05;98386.63;;;19.04;43.14
13553;BME280;6847;48.830;9.116;2023-05-19T06:52:32;98389.69;;;19.11;42.97
13553;BME280;6847;48.830;9.116;2023-05-19T06:55:00;98384.88;;;19.25;42.73
13553;BME280;6847;48.830;9.116;2023-05-19T06:57:28;98384.88;;;19.42;42.89
13553;BME280;6847;48.830;9.116;2023-05-19T06:59:56;98393.97;;;19.51;42.91
13553;BME280;6847;48.830;9.116;2023-05-19T07:02:22;98389.59;;;19.59;42.58
13553;BME280;6847;48.830;9.116;2023-05-19T07:04:49;98386.53;;;19.61;42.66
13553;BME280;6847;48.830;9.116;2023-05-19T07:07:18;98396.88;;;19.64;42.52
13553;BME280;6847;48.830;9.116;2023-05-19T07:09:45;98384.91;;;19.77;42.75
13553;BME280;6847;48.830;9.116;2023-05-19T07:12:13;98389.06;;;20.00;42.36
13553;BME280;6847;48.830;9.116;2023-05-19T07:14:40;98390.63;;;20.18;42.24
13553;BME280;6847;48.830;9.116;2023-05-19T07:17:06;98391.25;;;20.32;42.02
13553;BME280;6847;48.830;9.116;2023-05-19T07:19:33;98392.38;;;20.31;42.17
13553;BME280;6847;48.830;9.116;2023-05-19T07:22:00;98386.28;;;20.17;42.40
13553;BME280;6847;48.830;9.116;2023-05-19T07:24:27;98389.69;;;20.14;42.61
13553;BME280;6847;48.830;9.116;2023-05-19T07:26:54;98378.03;;;20.17;42.66
13553;BME280;6847;48.830;9.116;2023-05-19T07:29:24;98381.75;;;20.13;42.50
13553;BME280;6847;48.830;9.116;2023-05-19T07:31:51;98379.84;;;20.05;42.56
13553;BME280;6847;48.830;9.116;2023-05-19T07:34:22;98382.91;;;20.03;42.55
13553;BME280;6847;48.830;9.116;2023-05-19T07:36:49;98375.50;;;19.95;42.25
13553;BME280;6847;48.830;9.116;2023-05-19T07:39:16;98363.88;;;19.81;42.65
13553;BME280;6847;48.830;9.116;2023-05-19T07:41:44;98381.34;;;19.76;42.58
13553;BME280;6847;48.830;9.116;2023-05-19T07:44:55;98386.06;;;19.58;42.61
13553;BME280;6847;48.830;9.116;2023-05-19T07:48:00;98377.94;;;19.45;42.61
13553;BME280;6847;48.830;9.116;2023-05-19T07:51:07;98381.00;;;19.43;42.43
13553;BME280;6847;48.830;9.116;2023-05-19T07:53:35;98377.13;;;19.44;42.43
13553;BME280;6847;48.830;9.116;2023-05-19T07:56:40;98369.72;;;19.53;42.25
13553;BME280;6847;48.830;9.116;2023-05-19T07:59:09;98361.66;;;19.66;42.01
13553;BME280;6847;48.830;9.116;2023-05-19T08:01:37;98377.13;;;19.79;42.12
13553;BME280;6847;48.830;9.116;2023-05-19T08:04:04;98368.53;;;19.89;41.98
13553;BME280;6847;48.830;9.116;2023-05-19T08:06:31;98369.03;;;19.91;41.65
13553;BME280;6847;48.830;9.116;2023-05-19T08:08:58;98368.22;;;19.90;41.91
13553;BME280;6847;48.830;9.116;2023-05-19T08:11:25;98369.22;;;19.86;42.07
13553;BME280;6847;48.830;9.116;2023-05-19T08:13:52;98361.94;;;19.73;41.85
13553;BME280;6847;48.830;9.116;2023-05-19T08:16:19;98363.56;;;19.74;41.77
13553;BME280;6847;48.830;9.116;2023-05-19T08:18:47;98364.22;;;19.71;42.07
13553;BME280;6847;48.830;9.116;2023-05-19T08:21:13;98327.06;;;19.47;41.81
13553;BME280;6847;48.830;9.116;2023-05-19T08:23:40;98357.59;;;19.72;41.88
13553;BME280;6847;48.830;9.116;2023-05-19T08:26:07;98345.81;;;19.63;42.00
13553;BME280;6847;48.830;9.116;2023-05-19T08:28:34;98358.56;;;19.67;42.06
13553;BME280;6847;48.830;9.116;2023-05-19T08:31:01;98356.16;;;19.57;42.09
13553;BME280;6847;48.830;9.116;2023-05-19T08:33:28;98360.34;;;19.54;42.03
13553;BME280;6847;48.830;9.116;2023-05-19T08:35:57;98354.38;;;19.52;41.80
13553;BME280;6847;48.830;9.116;2023-05-19T08:38:24;98359.06;;;19.52;41.52
13553;BME280;6847;48.830;9.116;2023-05-19T08:40:51;98350.00;;;19.51;41.85
13553;BME280;6847;48.830;9.116;2023-05-19T08:43:18;98350.16;;;19.46;41.61
13553;BME280;6847;48.830;9.116;2023-05-19T08:45:44;98351.78;;;19.39;41.98
13553;BME280;6847;48.830;9.116;2023-05-19T08:48:13;98346.44;;;19.42;41.63
13553;BME280;6847;48.830;9.116;2023-05-19T08:50:50;98341.28;;;19.49;41.48
13553;BME280;6847;48.830;9.116;2023-05-19T08:53:25;98359.22;;;19.64;41.34
13553;BME280;6847;48.830;9.116;2023-05-19T08:56:00;98336.75;;;19.62;41.32
13553;BME280;6847;48.830;9.116;2023-05-19T08:58:29;98280.22;;;19.35;41.40
13553;BME280;6847;48.830;9.116;2023-05-19T09:00:56;98315.25;;;19.73;41.31
13553;BME280;6847;48.830;9.116;2023-05-19T09:03:26;98344.13;;;19.96;41.26
13553;BME280;6847;48.830;9.116;2023-05-19T09:05:53;98313.78;;;19.84;41.22
13553;BME280;6847;48.830;9.116;2023-05-19T09:08:21;98343.06;;;20.18;40.96
13553;BME280;6847;48.830;9.116;2023-05-19T09:10:48;98348.56;;;20.26;40.77
13553;BME280;6847;48.830;9.116;2023-05-19T09:13:14;98333.66;;;20.27;40.76
13553;BME280;6847;48.830;9.116;2023-05-19T09:15:43;98348.84;;;20.33;40.79
13553;BME280;6847;48.830;9.116;2023-05-19T09:18:12;98335.94;;;20.25;41.03
13553;BME280;6847;48.830;9.116;2023-05-19T09:20:40;98336.75;;;20.26;41.19
13553;BME280;6847;48.830;9.116;2023-05-19T09:23:11;98341.59;;;20.29;41.11
13553;BME280;6847;48.830;9.116;2023-05-19T09:25:47;98344.16;;;20.34;40.98
13553;BME280;6847;48.830;9.116;2023-05-19T09:28:22;98342.75;;;20.37;40.70
13553;BME280;6847;48.830;9.116;2023-05-19T09:30:48;98347.75;;;20.35;40.72
13553;BME280;6847;48.830;9.116;2023-05-19T09:33:24;98341.75;;;20.32;40.75
13553;BME280;6847;48.830;9.116;2023-05-19T09:35:52;98326.25;;;20.19;40.80
13553;BME280;6847;48.830;9.116;2023-05-19T09:38:20;98347.25;;;20.32;40.74
13553;BME280;6847;48.830;9.116;2023-05-19T09:40:49;98328.88;;;20.16;40.72
13553;BME280;6847;48.830;9.116;2023-05-19T09:43:16;98317.41;;;20.14;40.86
13553;BME280;6847;48.830;9.116;2023-05-19T09:45:43;98344.00;;;20.30;40.82
13553;BME280;6847;48.830;9.116;2023-05-19T09:48:10;98342.25;;;20.26;40.68
13553;BME280;6847;48.830;9.116;2023-05-19T09:50:36;98334.06;;;20.17;41.03
13553;BME280;6847;48.830;9.116;2023-05-19T09:53:03;98334.47;;;20.28;40.89
13553;BME280;6847;48.830;9.116;2023-05-19T09:55:30;98314.31;;;20.15;40.77
13553;BME280;6847;48.830;9.116;2023-05-19T09:58:00;98309.09;;;20.22;40.54
13553;BME280;6847;48.830;9.116;2023-05-19T10:00:29;98316.44;;;20.48;40.39
13553;BME280;6847;48.830;9.116;2023-05-19T10:02:58;98329.16;;;20.61;40.41
13553;BME280;6847;48.830;9.116;2023-05-19T10:05:27;98328.31;;;20.69;40.31
13553;BME280;6847;48.830;9.116;2023-05-19T10:07:55;98324.25;;;20.75;40.11
13553;BME280;6847;48.830;9.116;2023-05-19T10:10:22;98329.00;;;20.87;40.06
13553;BME280;6847;48.830;9.116;2023-05-19T10:12:49;98322.78;;;20.98;40.07
13553;BME280;6847;48.830;9.116;2023-05-19T10:15:18;98324.94;;;21.14;39.96
13553;BME280;6847;48.830;9.116;2023-05-19T10:17:45;98332.44;;;21.34;39.62
13553;BME280;6847;48.830;9.116;2023-05-19T10:20:13;98329.72;;;21.46;39.70
13553;BME280;6847;48.830;9.116;2023-05-19T10:22:42;98320.03;;;21.61;39.58
13553;BME280;6847;48.830;9.116;2023-05-19T10:25:11;98318.38;;;21.81;39.52
13553;BME280;6847;48.830;9.116;2023-05-19T10:27:41;98321.59;;;21.83;39.49
13553;BME280;6847;48.830;9.116;2023-05-19T10:30:13;98316.72;;;21.67;39.63
13553;BME280;6847;48.830;9.116;2023-05-19T10:32:44;98306.81;;;21.54;39.45
13553;BME280;6847;48.830;9.116;2023-05-19T10:35:33;98316.13;;;21.62;39.63
13553;BME280;6847;48.830;9.116;2023-05-19T10:38:10;98325.22;;;21.62;39.72
13553;BME280;6847;48.830;9.116;2023-05-19T10:40:50;98326.09;;;21.54;39.73
13553;BME280;6847;48.830;9.116;2023-05-19T10:43:24;98319.09;;;21.36;39.94
13553;BME280;6847;48.830;9.116;2023-05-19T10:45:57;98314.69;;;21.23;39.82
13553;BME280;6847;48.830;9.116;2023-05-19T10:48:26;98324.47;;;21.12;40.00
13553;BME280;6847;48.830;9.116;2023-05-19T10:50:58;98313.59;;;21.15;39.93
13553;BME280;6847;48.830;9.116;2023-05-19T10:53:30;98315.38;;;21.20;39.71
13553;BME280;6847;48.830;9.116;2023-05-19T10:55:57;98313.41;;;21.20;39.64
13553;BME280;6847;48.830;9.116;2023-05-19T10:58:36;98325.41;;;21.16;39.76
13553;BME280;6847;48.830;9.116;2023-05-19T11:01:08;98312.00;;;21.14;39.84
13553;BME280;6847;48.830;9.116;2023-05-19T11:03:56;98316.50;;;21.19;39.61
13553;BME280;6847;48.830;9.116;2023-05-19T11:06:28;98285.53;;;21.01;39.68
13553;BME280;6847;48.830;9.116;2023-05-19T11:08:57;98317.50;;;21.14;39.62
13553;BME280;6847;48.830;9.116;2023-05-19T11:11:45;98315.41;;;21.11;39.64
13553;BME280;6847;48.830;9.116;2023-05-19T11:14:14;98316.41;;;21.06;39.85
13553;BME280;6847;48.830;9.116;2023-05-19T11:16:41;98312.91;;;20.97;39.77
13553;BME280;6847;48.830;9.116;2023-05-19T11:19:18;98281.88;;;20.67;39.83
13553;BME280;6847;48.830;9.116;2023-05-19T11:21:48;98317.06;;;20.83;39.84
13553;BME280;6847;48.830;9.116;2023-05-19T11:24:32;98312.56;;;20.78;39.98
13553;BME280;6847;48.830;9.116;2023-05-19T11:29:42;98314.22;;;20.71;39.85
13553;BME280;6847;48.830;9.116;2023-05-19T11:32:10;98319.13;;;20.65;39.77
13553;BME280;6847;48.830;9.116;2023-05-19T11:34:38;98317.84;;;20.62;39.81
13553;BME280;6847;48.830;9.116;2023-05-19T11:37:06;98313.41;;;20.70;39.88
13553;BME280;6847;48.830;9.116;2023-05-19T11:39:34;98280.50;;;20.53;39.62
13553;BME280;6847;48.830;9.116;2023-05-19T11:42:01;98309.69;;;20.75;39.65
13553;BME280;6847;48.830;9.116;2023-05-19T11:44:28;98298.78;;;20.78;39.55
13553;BME280;6847;48.830;9.116;2023-05-19T11:46:57;98307.78;;;20.87;39.63
13553;BME280;6847;48.830;9.116;2023-05-19T11:49:27;98307.53;;;20.80;39.65
13553;BME280;6847;48.830;9.116;2023-05-19T11:51:56;98310.22;;;20.89;39.58
13553;BME280;6847;48.830;9.116;2023-05-19T11:54:28;98301.56;;;20.99;39.47
13553;BME280;6847;48.830;9.116;2023-05-19T11:56:59;98299.22;;;21.10;39.37
13553;BME280;6847;48.830;9.116;2023-05-19T11:59:31;98295.91;;;21.16;39.33
13553;BME280;6847;48.830;9.116;2023-05-19T12:02:00;98296.28;;;21.15;39.30
13553;BME280;6847;48.830;9.116;2023-05-19T12:04:33;98296.94;;;21.12;39.33
13553;BME280;6847;48.830;9.116;2023-05-19T12:07:02;98290.97;;;21.10;39.40
13553;BME280;6847;48.830;9.116;2023-05-19T12:09:29;98294.66;;;21.14;39.32
13553;BME280;6847;48.830;9.116;2023-05-19T12:12:34;98294.66;;;21.14;39.28
13553;BME280;6847;48.830;9.116;2023-05-19T12:15:02;98285.66;;;21.04;39.53
13553;BME280;6847;48.830;9.116;2023-05-19T12:17:31;98273.31;;;20.90;39.36
13553;BME280;6847;48.830;9.116;2023-05-19T12:19:58;98295.66;;;21.09;39.47
13553;BME280;6847;48.830;9.116;2023-05-19T12:22:27;98297.22;;;21.19;39.34
13553;BME280;6847;48.830;9.116;2023-05-19T12:24:54;98303.94;;;21.30;39.25
13553;BME280;6847;48.830;9.116;2023-05-19T12:27:23;98269.69;;;21.19;39.13
13553;BME280;6847;48.830;9.116;2023-05-19T12:29:51;98308.38;;;21.43;39.12
13553;BME280;6847;48.830;9.116;2023-05-19T12:32:21;98301.97;;;21.51;39.05
13553;BME280;6847;48.830;9.116;2023-05-19T12:34:50;98306.59;;;21.59;38.91
13553;BME280;6847;48.830;9.116;2023-05-19T12:37:18;98302.69;;;21.60;38.93
13553;BME280;6847;48.830;9.116;2023-05-19T12:39:49;98306.13;;;21.57;38.89
13553;BME280;6847;48.830;9.116;2023-05-19T12:42:15;98308.38;;;21.43;39.05
13553;BME280;6847;48.830;9.116;2023-05-19T12:44:45;98300.97;;;21.35;39.27
13553;BME280;6847;48.830;9.116;2023-05-19T12:47:13;98308.13;;;21.06;39.52
13553;BME280;6847;48.830;9.116;2023-05-19T12:49:53;98301.63;;;20.90;39.58
13553;BME280;6847;48.830;9.116;2023-05-19T12:52:21;98288.66;;;20.70;39.63
13553;BME280;6847;48.830;9.116;2023-05-19T12:54:57;98299.88;;;20.65;39.70
13553;BME280;6847;48.830;9.116;2023-05-19T12:57:24;98289.91;;;20.52;39.58
13553;BME280;6847;48.830;9.116;2023-05-19T12:59:51;98235.25;;;20.12;39.71
13553;BME280;6847;48.830;9.116;2023-05-19T13:02:18;98299.50;;;20.46;39.74
13553;BME280;6847;48.830;9.116;2023-05-19T13:04:45;98306.78;;;20.42;39.77
13553;BME280;6847;48.830;9.116;2023-05-19T13:07:12;98308.75;;;20.32;39.86
13553;BME280;6847;48.830;9.116;2023-05-19T13:09:39;98302.97;;;20.25;39.72
13553;BME280;6847;48.830;9.116;2023-05-19T13:12:08;98304.94;;;20.16;39.85
13553;BME280;6847;48.830;9.116;2023-05-19T13:14:35;98310.13;;;20.09;39.83
13553;BME280;6847;48.830;9.116;2023-05-19T13:17:01;98281.25;;;19.94;39.77
13553;BME280;6847;48.830;9.116;2023-05-19T13:19:29;98303.69;;;20.05;39.91
13553;BME280;6847;48.830;9.116;2023-05-19T13:21:56;98298.19;;;20.05;39.69
13553;BME280;6847;48.830;9.116;2023-05-19T13:24:23;98289.28;;;20.00;39.67